createdAt,value
2022-08-07T00:02:36.200Z,5.30
2022-08-07T00:04:09.540Z,8.80
2022-08-07T00:06:41.012Z,4.85
2022-08-07T00:09:21.177Z,6.22
2022-08-07T00:11:53.965Z,6.10
2022-08-07T00:14:25.335Z,4.45
2022-08-07T00:16:52.838Z,4.47
2022-08-07T00:19:21.610Z,4.80
2022-08-07T00:21:56.351Z,5.47
2022-08-07T00:24:29.126Z,6.68
2022-08-07T00:27:07.401Z,2.67
2022-08-07T00:29:37.093Z,3.45
2022-08-07T00:32:06.802Z,3.00
2022-08-07T00:34:35.586Z,3.00
2022-08-07T00:37:04.863Z,4.55
2022-08-07T00:39:36.429Z,4.03
2022-08-07T00:42:12.247Z,8.82
2022-08-07T00:44:41.383Z,5.88
2022-08-07T00:47:16.108Z,7.93
2022-08-07T00:50:20.638Z,10.77
2022-08-07T00:52:43.652Z,10.98
2022-08-07T00:55:17.501Z,14.65
2022-08-07T00:58:02.597Z,8.68
2022-08-07T01:00:31.506Z,12.77
2022-08-07T01:02:59.756Z,10.48
2022-08-07T01:05:29.759Z,13.02
2022-08-07T01:07:56.952Z,12.73
2022-08-07T01:10:24.331Z,12.50
2022-08-07T01:12:53.779Z,13.80
2022-08-07T01:15:35.774Z,16.00
2022-08-07T01:18:17.765Z,12.05
2022-08-07T01:20:57.204Z,14.15
2022-08-07T01:23:37.982Z,12.65
2022-08-07T01:26:13.203Z,11.60
2022-08-07T01:28:48.519Z,7.47
2022-08-07T01:31:27.841Z,10.60
2022-08-07T01:34:09.355Z,7.65
2022-08-07T01:36:40.850Z,11.35
2022-08-07T01:39:14.619Z,10.05
2022-08-07T01:42:01.509Z,8.32
2022-08-07T01:44:35.867Z,10.35
2022-08-07T01:47:14.638Z,8.32
2022-08-07T01:49:53.559Z,4.68
2022-08-07T01:52:26.623Z,6.47
2022-08-07T01:54:56.387Z,9.90
2022-08-07T01:57:34.010Z,6.75
2022-08-07T02:00:19.339Z,5.70
2022-08-07T02:03:11.680Z,5.38
2022-08-07T02:06:01.107Z,6.70
2022-08-07T02:08:42.381Z,7.10
2022-08-07T02:11:11.503Z,6.90
2022-08-07T02:14:02.346Z,4.53
2022-08-07T02:16:33.346Z,11.15
2022-08-07T02:20:07.220Z,5.55
2022-08-07T02:21:58.505Z,5.70
2022-08-07T02:24:29.336Z,6.47
2022-08-07T02:27:01.103Z,8.13
2022-08-07T02:29:30.707Z,4.93
2022-08-07T02:32:01.004Z,7.63
2022-08-07T02:34:29.587Z,5.85
2022-08-07T02:37:04.060Z,5.32
2022-08-07T02:39:43.999Z,7.45
2022-08-07T02:42:29.900Z,8.77
2022-08-07T02:45:57.568Z,10.07
2022-08-07T02:47:49.152Z,4.72
2022-08-07T02:50:19.270Z,5.40
2022-08-07T02:53:10.710Z,6.05
2022-08-07T02:56:03.179Z,7.63
2022-08-07T02:58:33.417Z,7.15
2022-08-07T03:01:03.439Z,6.38
2022-08-07T03:03:49.174Z,5.53
2022-08-07T03:06:26.050Z,5.13
2022-08-07T03:09:03.566Z,8.30
2022-08-07T03:11:38.626Z,7.07
2022-08-07T03:14:09.180Z,7.18
2022-08-07T03:16:38.343Z,8.18
2022-08-07T03:19:07.580Z,7.22
2022-08-07T03:21:37.190Z,4.93
2022-08-07T03:24:18.201Z,7.95
2022-08-07T03:26:58.900Z,4.03
2022-08-07T03:29:36.861Z,3.25
2022-08-07T03:32:13.510Z,4.80
2022-08-07T03:34:47.229Z,4.65
2022-08-07T03:37:32.708Z,3.05
2022-08-07T03:40:14.930Z,3.28
2022-08-07T03:42:44.105Z,3.60
2022-08-07T03:45:30.427Z,2.80
2022-08-07T03:48:10.063Z,5.63
2022-08-07T03:50:40.044Z,3.58
2022-08-07T03:53:11.428Z,4.63
2022-08-07T03:55:52.887Z,2.97
2022-08-07T03:59:03.786Z,5.45
2022-08-07T04:01:14.603Z,2.90
2022-08-07T04:03:53.223Z,3.75
2022-08-07T04:06:37.761Z,4.72
2022-08-07T04:09:15.199Z,4.43
2022-08-07T04:12:27.062Z,4.88
2022-08-07T04:14:43.743Z,5.43
2022-08-07T04:18:04.655Z,4.40
2022-08-07T04:20:03.562Z,4.57
2022-08-07T04:22:35.816Z,4.55
2022-08-07T04:25:08.882Z,6.75
2022-08-07T04:27:43.949Z,6.18
2022-08-07T04:30:21.251Z,3.17
2022-08-07T04:33:08.820Z,4.18
2022-08-07T04:35:38.881Z,3.90
2022-08-07T04:38:11.478Z,4.00
2022-08-07T04:40:52.124Z,2.47
2022-08-07T04:44:11.994Z,4.07
2022-08-07T04:47:07.799Z,4.00
2022-08-07T04:50:05.496Z,5.35
2022-08-07T04:53:16.477Z,7.68
2022-08-07T04:58:10.761Z,11.32
2022-08-07T05:00:09.889Z,9.23
2022-08-07T05:02:16.833Z,8.02
2022-08-07T05:05:52.631Z,6.95
2022-08-07T05:08:07.819Z,3.60
2022-08-07T05:10:45.903Z,7.82
2022-08-07T05:14:56.259Z,7.28
2022-08-07T05:16:17.067Z,5.78
2022-08-07T05:19:15.635Z,4.82
2022-08-07T05:22:00.581Z,2.67
2022-08-07T05:24:39.524Z,7.47
2022-08-07T05:27:18.413Z,4.93
2022-08-07T05:30:01.796Z,4.68
2022-08-07T05:32:31.084Z,4.25
2022-08-07T05:35:02.252Z,4.60
2022-08-07T05:37:31.771Z,8.70
2022-08-07T05:40:18.513Z,5.10
2022-08-07T05:42:55.523Z,4.90
2022-08-07T05:45:46.107Z,6.35
2022-08-07T05:48:14.787Z,5.07
2022-08-07T05:50:45.884Z,3.75
2022-08-07T05:54:09.246Z,9.20
2022-08-07T05:56:06.800Z,4.03
2022-08-07T05:58:41.945Z,5.50
2022-08-07T06:01:21.198Z,6.53
2022-08-07T06:03:58.779Z,6.88
2022-08-07T06:06:32.521Z,3.38
2022-08-07T06:09:05.027Z,5.57
2022-08-07T06:11:35.752Z,7.90
2022-08-07T06:14:11.547Z,6.75
2022-08-07T06:16:50.365Z,7.82
2022-08-07T06:19:51.775Z,5.72
2022-08-07T06:22:23.306Z,5.55
2022-08-07T06:25:01.177Z,6.60
2022-08-07T06:27:44.045Z,5.20
2022-08-07T06:30:24.074Z,6.95
2022-08-07T06:33:00.292Z,5.32
2022-08-07T06:35:30.530Z,4.53
2022-08-07T06:38:08.309Z,5.90
2022-08-07T06:40:52.856Z,8.18
2022-08-07T06:43:24.594Z,8.95
2022-08-07T06:46:05.284Z,6.47
2022-08-07T06:48:42.093Z,6.82
2022-08-07T06:51:31.207Z,5.20
2022-08-07T06:55:28.260Z,4.68
2022-08-07T06:56:53.936Z,5.38
2022-08-07T07:00:14.843Z,11.25
2022-08-07T07:02:48.992Z,13.65
2022-08-07T07:05:13.267Z,6.75
2022-08-07T07:08:06.410Z,8.48
2022-08-07T07:10:35.675Z,4.95
2022-08-07T07:13:56.155Z,4.88
2022-08-07T07:16:19.832Z,8.98
2022-08-07T07:18:52.549Z,4.32
2022-08-07T07:21:40.362Z,12.38
2022-08-07T07:24:17.537Z,5.45
2022-08-07T07:26:49.572Z,5.07
2022-08-07T07:29:39.485Z,5.30
2022-08-07T07:32:14.349Z,8.70
2022-08-07T07:34:46.638Z,7.03
2022-08-07T07:37:45.148Z,7.05
2022-08-07T07:40:10.251Z,4.28
2022-08-07T07:42:50.860Z,8.35
2022-08-07T07:45:24.496Z,4.32
2022-08-07T07:48:12.858Z,5.57
2022-08-07T07:51:02.152Z,5.55
2022-08-07T07:53:30.538Z,5.55
2022-08-07T07:56:03.252Z,6.20
2022-08-07T07:58:37.122Z,5.47
2022-08-07T08:02:04.143Z,10.70
2022-08-07T08:04:09.642Z,6.50
2022-08-07T08:06:50.605Z,5.38
2022-08-07T08:09:22.812Z,4.72
2022-08-07T08:12:01.981Z,5.78
2022-08-07T08:14:37.021Z,6.88
2022-08-07T08:17:56.264Z,5.88
2022-08-07T08:20:17.328Z,10.23
2022-08-07T08:23:09.303Z,6.30
2022-08-07T08:26:04.623Z,7.40
2022-08-07T08:28:39.171Z,3.58
2022-08-07T08:31:15.798Z,3.85
2022-08-07T08:33:49.275Z,5.75
2022-08-07T08:36:25.738Z,3.95
2022-08-07T08:39:02.073Z,5.30
2022-08-07T08:41:58.262Z,5.45
2022-08-07T08:44:41.232Z,9.02
2022-08-07T08:47:51.945Z,5.80
2022-08-07T08:50:28.294Z,4.53
2022-08-07T08:53:09.480Z,6.05
2022-08-07T08:55:53.734Z,7.07
2022-08-07T08:58:43.324Z,4.68
2022-08-07T09:01:19.332Z,6.15
2022-08-07T09:03:55.641Z,8.00
2022-08-07T09:07:06.119Z,5.60
2022-08-07T09:12:31.165Z,4.90
2022-08-07T09:16:22.942Z,2.88
2022-08-07T09:18:53.007Z,3.22
2022-08-07T09:21:58.303Z,4.10
2022-08-07T09:24:58.837Z,6.20
2022-08-07T09:28:01.743Z,6.38
2022-08-07T09:31:13.512Z,4.10
2022-08-07T09:34:03.531Z,3.35
2022-08-07T09:36:52.525Z,3.95
2022-08-07T09:39:55.054Z,6.15
2022-08-07T09:42:24.889Z,5.88
2022-08-07T09:47:51.687Z,5.63
2022-08-07T09:48:21.981Z,3.88
2022-08-07T09:51:14.725Z,4.20
2022-08-07T09:54:02.339Z,4.05
2022-08-07T09:56:54.799Z,3.05
2022-08-07T09:59:46.323Z,4.07
2022-08-07T10:02:55.862Z,8.50
2022-08-07T10:05:59.045Z,4.68
2022-08-07T10:08:55.849Z,6.57
2022-08-07T10:12:02.175Z,7.22
2022-08-07T10:14:31.060Z,6.75
2022-08-07T10:17:16.666Z,5.78
2022-08-07T10:19:59.762Z,5.93
2022-08-07T10:22:43.241Z,3.45
2022-08-07T10:25:55.127Z,6.75
2022-08-07T10:28:56.141Z,3.85
2022-08-07T10:31:49.036Z,6.10
2022-08-07T10:34:45.511Z,5.17
2022-08-07T10:37:48.230Z,9.57
2022-08-07T10:40:50.456Z,3.08
2022-08-07T10:43:44.447Z,4.22
2022-08-07T10:46:24.653Z,6.97
2022-08-07T10:49:15.848Z,5.55
2022-08-07T10:52:12.911Z,4.53
2022-08-07T10:54:55.167Z,3.38
2022-08-07T10:57:56.705Z,3.90
2022-08-07T11:00:39.259Z,2.80
2022-08-07T11:03:19.759Z,3.95
2022-08-07T11:06:03.047Z,2.65
2022-08-07T11:08:48.741Z,2.97
2022-08-07T11:11:35.966Z,2.60
2022-08-07T11:14:43.555Z,2.85
2022-08-07T11:17:23.577Z,2.55
2022-08-07T11:20:19.538Z,4.80
2022-08-07T11:23:12.493Z,4.30
2022-08-07T11:26:06.752Z,3.30
2022-08-07T11:28:55.467Z,3.05
2022-08-07T11:31:37.168Z,3.05
2022-08-07T11:34:10.246Z,3.30
2022-08-07T11:37:00.291Z,5.85
2022-08-07T11:40:09.316Z,3.45
2022-08-07T11:43:03.776Z,2.47
2022-08-07T11:46:23.346Z,3.22
2022-08-07T11:49:51.021Z,2.97
2022-08-07T11:52:03.732Z,2.80
2022-08-07T11:54:46.320Z,3.08
2022-08-07T11:57:57.761Z,3.10
2022-08-07T12:00:33.735Z,3.05
2022-08-07T12:03:41.820Z,2.70
2022-08-07T12:06:57.273Z,2.75
2022-08-07T12:09:40.356Z,3.05
2022-08-07T12:12:12.449Z,2.38
2022-08-07T12:15:00.441Z,2.45
2022-08-07T12:18:08.033Z,3.17
2022-08-07T12:21:07.916Z,2.70
2022-08-07T12:24:07.759Z,2.50
2022-08-07T12:27:15.912Z,2.95
2022-08-07T12:29:51.520Z,2.65
2022-08-07T12:32:30.983Z,3.85
2022-08-07T12:35:02.244Z,2.80
2022-08-07T12:38:11.548Z,4.72
2022-08-07T12:40:46.466Z,2.67
2022-08-07T12:44:02.069Z,2.83
2022-08-07T12:46:32.503Z,2.63
2022-08-07T12:49:25.524Z,2.85
2022-08-07T12:52:17.868Z,2.78
2022-08-07T12:55:16.569Z,2.70
2022-08-07T12:58:01.119Z,2.83
2022-08-07T13:00:57.650Z,4.00
2022-08-07T13:03:59.351Z,3.65
2022-08-07T13:07:01.334Z,3.78
2022-08-07T13:10:37.797Z,2.60
2022-08-07T13:13:46.914Z,2.40
2022-08-07T13:16:46.720Z,3.13
2022-08-07T13:19:46.036Z,3.15
2022-08-07T13:22:31.290Z,2.92
2022-08-07T13:25:15.161Z,2.85
2022-08-07T13:28:11.206Z,2.50
2022-08-07T13:30:49.138Z,2.53
2022-08-07T13:34:34.475Z,2.90
2022-08-07T13:36:43.440Z,2.47
2022-08-07T13:40:34.367Z,3.97
2022-08-07T13:42:25.076Z,3.47
2022-08-07T13:44:55.268Z,2.40
2022-08-07T13:48:06.909Z,3.15
2022-08-07T13:50:34.720Z,3.30
2022-08-07T13:53:21.937Z,2.25
2022-08-07T13:55:54.804Z,2.42
2022-08-07T13:58:50.406Z,3.30
2022-08-07T14:01:26.471Z,2.40
2022-08-07T14:04:05.641Z,2.97
2022-08-07T14:06:38.582Z,2.00
2022-08-07T14:09:09.973Z,2.13
2022-08-07T14:12:00.431Z,2.80
2022-08-07T14:14:43.281Z,2.83
2022-08-07T14:18:13.097Z,2.83
2022-08-07T14:20:41.884Z,2.90
2022-08-07T14:23:58.714Z,2.80
2022-08-07T14:26:29.961Z,2.88
2022-08-07T14:30:02.812Z,2.38
2022-08-07T14:31:57.907Z,2.60
2022-08-07T14:34:30.510Z,3.13
2022-08-07T14:37:03.238Z,1.90
2022-08-07T14:40:17.598Z,1.83
2022-08-07T14:42:27.640Z,2.03
2022-08-07T14:45:21.432Z,2.92
2022-08-07T14:50:44.779Z,2.70
2022-08-07T14:56:05.696Z,2.30
2022-08-07T14:58:37.928Z,3.25
2022-08-07T15:01:22.775Z,3.83
2022-08-07T15:06:40.505Z,2.20
2022-08-07T15:12:26.002Z,2.47
2022-08-07T15:15:09.308Z,2.45
2022-08-07T15:17:58.929Z,3.03
2022-08-07T15:25:02.693Z,2.05
2022-08-07T15:28:58.408Z,2.10
2022-08-07T15:31:57.876Z,2.90
2022-08-07T15:34:50.211Z,2.40
2022-08-07T15:38:17.365Z,2.60
2022-08-07T15:40:34.855Z,2.10
2022-08-07T15:43:53.637Z,2.95
2022-08-07T15:46:06.932Z,2.20
2022-08-07T15:49:03.691Z,2.33
2022-08-07T15:54:31.017Z,2.35
2022-08-07T15:57:04.749Z,2.30
2022-08-07T15:59:39.176Z,5.28
2022-08-07T16:02:26.531Z,2.83
2022-08-07T16:05:15.513Z,2.50
2022-08-07T16:08:31.784Z,2.30
2022-08-07T16:14:00.018Z,4.28
2022-08-07T16:16:48.519Z,2.55
2022-08-07T16:19:41.917Z,2.70
2022-08-07T16:22:55.620Z,2.60
2022-08-07T16:26:01.343Z,3.15
2022-08-07T16:30:07.483Z,3.05
2022-08-07T16:32:02.177Z,2.83
2022-08-07T16:34:59.391Z,2.15
2022-08-07T16:38:05.832Z,2.53
2022-08-07T16:41:13.209Z,3.67
2022-08-07T16:44:53.916Z,2.40
2022-08-07T16:47:49.661Z,3.22
2022-08-07T16:50:35.766Z,3.15
2022-08-07T16:53:55.699Z,3.25
2022-08-07T16:56:13.856Z,2.83
2022-08-07T16:59:10.000Z,3.00
2022-08-07T17:01:34.236Z,6.07
2022-08-07T17:04:34.488Z,3.13
2022-08-07T17:07:55.695Z,4.57
2022-08-07T17:10:39.641Z,4.50
2022-08-07T17:13:41.636Z,2.95
2022-08-07T17:16:40.084Z,3.20
2022-08-07T17:20:01.853Z,6.15
2022-08-07T17:22:55.170Z,2.80
2022-08-07T17:25:45.799Z,4.50
2022-08-07T17:28:49.865Z,4.55
2022-08-07T17:32:03.201Z,5.70
2022-08-07T17:35:33.005Z,3.85
2022-08-07T17:38:11.559Z,3.95
2022-08-07T17:40:58.595Z,5.40
2022-08-07T17:44:05.841Z,4.80
2022-08-07T17:46:52.139Z,3.83
2022-08-07T17:49:30.121Z,3.10
2022-08-07T17:52:12.779Z,4.47
2022-08-07T17:54:53.813Z,5.63
2022-08-07T17:57:58.573Z,5.10
2022-08-07T18:00:34.120Z,3.10
2022-08-07T18:04:04.379Z,8.38
2022-08-07T18:06:38.305Z,5.18
2022-08-07T18:09:08.755Z,4.18
2022-08-07T18:12:16.022Z,4.18
2022-08-07T18:14:59.981Z,4.45
2022-08-07T18:18:47.011Z,7.30
2022-08-07T18:21:10.314Z,6.05
2022-08-07T18:24:33.999Z,5.53
2022-08-07T18:27:38.714Z,8.55
2022-08-07T18:30:31.944Z,7.88
2022-08-07T18:33:10.860Z,5.78
2022-08-07T18:35:57.189Z,7.50
2022-08-07T18:38:55.490Z,11.20
2022-08-07T18:41:46.814Z,4.68
2022-08-07T18:44:29.207Z,5.47
2022-08-07T18:47:06.975Z,6.40
2022-08-07T18:50:35.138Z,6.97
2022-08-07T18:52:56.562Z,5.45
2022-08-07T18:55:42.763Z,5.60
2022-08-07T18:58:28.008Z,7.45
2022-08-07T19:01:02.877Z,5.85
2022-08-07T19:03:52.125Z,5.18
2022-08-07T19:06:37.376Z,7.53
2022-08-07T19:09:56.588Z,10.38
2022-08-07T19:12:27.162Z,6.07
2022-08-07T19:16:02.582Z,7.47
2022-08-07T19:18:14.899Z,8.02
2022-08-07T19:21:09.603Z,5.57
2022-08-07T19:23:59.395Z,7.10
2022-08-07T19:26:55.494Z,6.28
2022-08-07T19:30:57.375Z,6.72
2022-08-07T19:32:28.990Z,4.97
2022-08-07T19:35:07.043Z,7.65
2022-08-07T19:37:57.133Z,9.90
2022-08-07T19:40:31.151Z,8.43
2022-08-07T19:43:12.717Z,6.80
2022-08-07T19:46:09.804Z,8.30
2022-08-07T19:48:59.985Z,5.28
2022-08-07T19:51:50.865Z,7.75
2022-08-07T19:54:31.665Z,7.60
2022-08-07T19:58:02.108Z,9.65
2022-08-07T20:00:02.093Z,4.68
2022-08-07T20:03:05.996Z,8.13
2022-08-07T20:05:59.657Z,6.43
2022-08-07T20:08:37.517Z,8.48
2022-08-07T20:11:12.052Z,6.57
2022-08-07T20:13:55.158Z,7.28
2022-08-07T20:16:35.471Z,10.57
2022-08-07T20:19:05.995Z,7.03
2022-08-07T20:21:42.134Z,10.30
2022-08-07T20:24:28.698Z,5.88
2022-08-07T20:27:01.908Z,7.32
2022-08-07T20:29:49.551Z,8.10
2022-08-07T20:32:25.498Z,5.15
2022-08-07T20:34:56.372Z,5.70
2022-08-07T20:37:55.206Z,7.07
2022-08-07T20:40:32.143Z,7.70
2022-08-07T20:43:03.754Z,8.85
2022-08-07T20:46:27.531Z,8.70
2022-08-07T20:48:30.813Z,7.50
2022-08-07T20:54:03.881Z,5.68
2022-08-07T20:58:55.920Z,9.90
2022-08-07T21:01:29.579Z,5.55
2022-08-07T21:04:21.929Z,7.28
2022-08-07T21:06:53.575Z,7.50
2022-08-07T21:09:24.267Z,5.35
2022-08-07T21:11:57.164Z,9.57
2022-08-07T21:14:32.633Z,8.80
2022-08-07T21:18:00.847Z,5.25
2022-08-07T21:20:04.594Z,7.30
2022-08-07T21:22:39.040Z,5.25
2022-08-07T21:25:13.053Z,7.72
2022-08-07T21:28:13.556Z,6.78
2022-08-07T21:30:55.233Z,6.50
2022-08-07T21:33:41.543Z,5.53
2022-08-07T21:36:32.261Z,5.28
2022-08-07T21:39:45.915Z,5.93
2022-08-07T21:42:46.189Z,9.55
2022-08-07T21:46:09.178Z,5.47
2022-08-07T21:48:27.896Z,4.63
2022-08-07T21:51:32.282Z,5.82
2022-08-07T21:54:25.902Z,5.80
2022-08-07T21:57:31.427Z,5.18
2022-08-07T22:00:22.940Z,3.92
2022-08-07T22:03:30.607Z,6.15
2022-08-07T22:06:03.897Z,4.38
2022-08-07T22:08:39.278Z,6.95
2022-08-07T22:11:08.326Z,4.43
2022-08-07T22:13:50.192Z,6.15
2022-08-07T22:16:56.269Z,4.35
2022-08-07T22:19:34.205Z,3.83
2022-08-07T22:22:27.436Z,4.20
2022-08-07T22:25:03.266Z,7.68
2022-08-07T22:28:07.990Z,6.28
2022-08-07T22:30:53.219Z,5.50
2022-08-07T22:33:52.433Z,4.28
2022-08-07T22:36:38.410Z,4.45
2022-08-07T22:39:18.256Z,6.18
2022-08-07T22:42:03.343Z,6.75
2022-08-07T22:44:58.217Z,4.15
2022-08-07T22:47:36.855Z,7.30
2022-08-07T22:50:07.005Z,5.93
2022-08-07T22:52:58.339Z,5.43
2022-08-07T22:55:57.484Z,5.07
2022-08-07T22:58:45.361Z,3.38
2022-08-07T23:01:50.983Z,5.45
2022-08-07T23:04:57.031Z,3.85
2022-08-07T23:07:41.609Z,8.13
2022-08-07T23:10:37.600Z,6.65
2022-08-07T23:13:12.651Z,3.60
2022-08-07T23:16:06.991Z,3.45
2022-08-07T23:19:51.266Z,6.07
2022-08-07T23:23:11.056Z,2.95
2022-08-07T23:25:57.825Z,3.03
2022-08-07T23:28:54.583Z,6.00
2022-08-07T23:32:49.336Z,3.05
2022-08-07T23:34:51.556Z,11.07
2022-08-07T23:38:00.993Z,3.53
2022-08-07T23:40:50.008Z,3.80
2022-08-07T23:43:38.067Z,5.00
2022-08-07T23:46:19.897Z,5.35
2022-08-07T23:49:15.605Z,2.67
2022-08-07T23:53:05.839Z,3.58
2022-08-07T23:54:58.101Z,2.88
2022-08-07T23:57:32.369Z,3.33
